Time;durP1;ratioP1;P1;durP2;ratioP2;P2;SDS_P1;SDS_P2;PMS_P1;PMS_P2;Temp;Humidity;BMP_temperature;BMP_pressure;BME280_temperature;BME280_humidity;BME280_pressure;Samples;Min_cycle;Max_cycle;Signal;HPM_P1;HPM_P2
2021/05/27 00:00:54;;;;;;;17.07;10.52;;;;;;;;;;362059;109;1962900;-74
2021/05/27 00:01:59;;;;;;;15.60;9.50;;;;;;;;;;364827;109;1962972;-74
2021/05/27 00:03:05;;;;;;;15.42;9.76;;;;;;;;;;364571;110;1961973;-73
2021/05/27 00:04:17;;;;;;;19.01;12.34;;;;;;;;;;390190;104;2071887;-74
2021/05/27 00:05:22;;;;;;;18.89;11.27;;;;;;;;;;372679;106;1962045;-74
2021/05/27 00:06:28;;;;;;;17.54;11.78;;;;;;;;;;301716;105;2267910;-74
2021/05/27 00:07:35;;;;;;;18.94;11.27;;;;;;;;;;376768;106;1962011;-73
2021/05/27 00:08:41;;;;;;;17.39;11.70;;;;;;;;;;380783;106;1961973;-74
2021/05/27 00:09:46;;;;;;;16.43;11.16;;;;;;;;;;382667;106;1960869;-74
2021/05/27 00:10:52;;;;;;;17.72;11.15;;;;;;;;;;382360;106;1960852;-73
2021/05/27 00:11:58;;;;;;;15.94;10.08;;;;;;;;;;379406;104;1960959;-74
2021/05/27 00:13:04;;;;;;;15.84;9.81;;;;;;;;;;337227;106;2677972;-73
2021/05/27 00:14:11;;;;;;;13.79;9.58;;;;;;;;;;381240;106;1963950;-75
2021/05/27 00:15:18;;;;;;;16.73;10.71;;;;;;;;;;378426;104;1962001;-72
2021/05/27 00:16:23;;;;;;;16.24;10.12;;;;;;;;;;369369;106;2959994;-74
2021/05/27 00:17:28;;;;;;;13.93;9.57;;;;;;;;;;383402;106;1961970;-73
2021/05/27 00:18:33;;;;;;;16.28;9.43;;;;;;;;;;376870;106;1962007;-74
2021/05/27 00:19:40;;;;;;;15.83;9.78;;;;;;;;;;361083;104;1962067;-75
2021/05/27 00:20:47;;;;;;;15.36;9.65;;;;;;;;;;378529;106;1962888;-73
2021/05/27 00:21:51;;;;;;;14.13;9.98;;;;;;;;;;381128;106;1962962;-74
2021/05/27 00:23:04;;;;;;;15.06;9.15;;;;;;;;;;393773;104;1986950;-73
2021/05/27 00:24:09;;;;;;;16.72;10.01;;;;;;;;;;371943;107;1969047;-73
2021/05/27 00:25:14;;;;;;;15.28;10.13;;;;;;;;;;376666;105;1961968;-73
2021/05/27 00:26:20;;;;;;;14.72;9.75;;;;;;;;;;341341;107;2550040;-73
2021/05/27 00:27:27;;;;;;;15.52;9.53;;;;;;;;;;373736;105;1962957;-75
2021/05/27 00:28:32;;;;;;;16.12;10.16;;;;;;;;;;375713;105;1962041;-74
2021/05/27 00:29:37;;;;;;;16.80;10.47;;;;;;;;;;383771;105;1961922;-74
2021/05/27 00:30:43;;;;;;;13.35;9.84;;;;;;;;;;376279;105;1962002;-73
2021/05/27 00:31:48;;;;;;;13.00;9.38;;;;;;;;;;377745;105;1964052;-74
2021/05/27 00:32:56;;;;;;;14.97;9.53;;;;;;;;;;369616;105;2896914;-74
2021/05/27 00:34:02;;;;;;;16.55;9.96;;;;;;;;;;314048;107;2170929;-76
2021/05/27 00:35:07;;;;;;;14.34;10.35;;;;;;;;;;370417;107;1961953;-74
2021/05/27 00:36:15;;;;;;;14.40;9.42;;;;;;;;;;375185;107;1961946;-73
2021/05/27 00:37:20;;;;;;;16.91;10.39;;;;;;;;;;375769;105;1963028;-74
2021/05/27 00:38:25;;;;;;;15.04;10.32;;;;;;;;;;372750;107;1963952;-73
2021/05/27 00:39:30;;;;;;;17.43;11.56;;;;;;;;;;374721;105;1962971;-73
2021/05/27 00:40:37;;;;;;;16.40;10.74;;;;;;;;;;360764;107;1961045;-74
2021/05/27 00:41:42;;;;;;;18.76;11.36;;;;;;;;;;351121;108;1961932;-74
2021/05/27 00:43:14;;;;;;;15.76;10.71;;;;;;;;;;396457;103;1985981;-74
2021/05/27 00:44:21;;;;;;;14.75;10.46;;;;;;;;;;375156;105;1962012;-73
2021/05/27 00:45:27;;;;;;;17.56;11.03;;;;;;;;;;335600;105;2656076;-74
2021/05/27 00:46:32;;;;;;;17.92;11.69;;;;;;;;;;352073;106;1962964;-74
2021/05/27 00:47:38;;;;;;;16.69;10.72;;;;;;;;;;348415;106;1961974;-74
2021/05/27 00:48:57;;;;;;;15.97;10.91;;;;;;;;;;377252;106;1961895;-73
2021/05/27 00:50:07;;;;;;;22.46;10.97;;;;;;;;;;332689;106;2009003;-72
2021/05/27 00:51:13;;;;;;;18.66;11.09;;;;;;;;;;345737;105;1959784;-73
2021/05/27 00:52:18;;;;;;;19.12;12.03;;;;;;;;;;340813;107;1960750;-74
2021/05/27 00:53:23;;;;;;;16.57;12.13;;;;;;;;;;330515;106;2062853;-73
2021/05/27 00:54:30;;;;;;;18.33;12.23;;;;;;;;;;377774;106;1960836;-73
2021/05/27 00:55:35;;;;;;;17.43;11.79;;;;;;;;;;380173;106;1963951;-73
2021/05/27 00:56:41;;;;;;;19.47;12.18;;;;;;;;;;366968;110;1961982;-72
2021/05/27 00:57:46;;;;;;;16.20;11.96;;;;;;;;;;370941;108;1962006;-74
2021/05/27 00:58:53;;;;;;;16.39;11.04;;;;;;;;;;369294;108;1962026;-75
2021/05/27 00:59:59;;;;;;;16.73;11.44;;;;;;;;;;305936;110;2172972;-75
2021/05/27 01:01:04;;;;;;;16.88;11.68;;;;;;;;;;366277;109;1961976;-74
2021/05/27 01:02:10;;;;;;;15.86;11.37;;;;;;;;;;374989;106;1962016;-75
2021/05/27 01:03:15;;;;;;;19.31;11.98;;;;;;;;;;375315;106;1962000;-75
2021/05/27 01:04:21;;;;;;;18.36;11.71;;;;;;;;;;364536;109;1963924;-75
2021/05/27 01:05:26;;;;;;;16.12;11.46;;;;;;;;;;373720;105;1962999;-75
2021/05/27 01:06:33;;;;;;;16.13;11.64;;;;;;;;;;375296;106;1961945;-73
2021/05/27 01:07:39;;;;;;;15.42;10.29;;;;;;;;;;321103;107;2789918;-73
2021/05/27 01:08:45;;;;;;;13.81;10.76;;;;;;;;;;371906;108;1961973;-74
2021/05/27 01:09:51;;;;;;;17.91;12.32;;;;;;;;;;374737;108;1964053;-73
2021/05/27 01:10:56;;;;;;;18.29;10.73;;;;;;;;;;377117;106;1961943;-73
2021/05/27 01:12:01;;;;;;;16.38;11.34;;;;;;;;;;376439;106;1961934;-74
2021/05/27 01:13:07;;;;;;;16.35;11.14;;;;;;;;;;375411;106;1961964;-74
2021/05/27 01:15:25;;;;;;;17.12;11.41;;;;;;;;;;378452;106;1961982;-73
2021/05/27 01:15:32;;;;;;;16.82;11.49;;;;;;;;;;367838;108;1961990;-73
2021/05/27 01:16:39;;;;;;;17.56;10.84;;;;;;;;;;377171;106;1962058;-74
2021/05/27 01:17:45;;;;;;;15.36;10.61;;;;;;;;;;323852;108;2762056;-73
2021/05/27 01:18:50;;;;;;;16.58;11.42;;;;;;;;;;325807;108;2063961;-72
2021/05/27 01:19:55;;;;;;;16.84;10.82;;;;;;;;;;327499;107;2035973;-73
2021/05/27 01:21:00;;;;;;;14.41;10.54;;;;;;;;;;320677;107;2108959;-73
2021/05/27 01:22:05;;;;;;;14.33;10.09;;;;;;;;;;329709;106;2076981;-72
2021/05/27 01:23:13;;;;;;;18.06;10.83;;;;;;;;;;378239;108;1960848;-73
2021/05/27 01:24:20;;;;;;;18.76;9.46;;;;;;;;;;377321;106;1960983;-73
2021/05/27 01:25:25;;;;;;;17.70;10.67;;;;;;;;;;377767;106;1960733;-73
2021/05/27 01:26:31;;;;;;;15.86;10.04;;;;;;;;;;343936;108;1960926;-73
2021/05/27 01:27:36;;;;;;;13.42;9.68;;;;;;;;;;352474;105;1961953;-73
2021/05/27 01:28:42;;;;;;;15.59;10.38;;;;;;;;;;381440;106;1961950;-73
2021/05/27 01:29:50;;;;;;;17.96;10.23;;;;;;;;;;377981;106;1963896;-73
2021/05/27 01:30:57;;;;;;;15.69;10.09;;;;;;;;;;311789;106;2302006;-72
2021/05/27 01:32:04;;;;;;;15.83;10.92;;;;;;;;;;375552;107;1960888;-73
2021/05/27 01:33:11;;;;;;;13.12;9.43;;;;;;;;;;379219;105;1959924;-75
2021/05/27 01:34:17;;;;;;;17.19;11.03;;;;;;;;;;332997;105;2771882;-73
2021/05/27 01:35:23;;;;;;;16.53;11.22;;;;;;;;;;335910;105;2022691;-73
2021/05/27 01:36:36;;;;;;;15.82;9.90;;;;;;;;;;398324;103;1982726;-73
2021/05/27 01:37:41;;;;;;;15.94;9.96;;;;;;;;;;376047;107;1960800;-74
2021/05/27 01:38:46;;;;;;;18.05;10.62;;;;;;;;;;372013;108;1961938;-73
2021/05/27 01:39:51;;;;;;;18.32;10.93;;;;;;;;;;362156;107;1961939;-74
2021/05/27 01:40:57;;;;;;;19.99;10.57;;;;;;;;;;358858;111;1961998;-75
2021/05/27 01:42:03;;;;;;;14.60;10.52;;;;;;;;;;343360;107;1962057;-73
2021/05/27 01:43:09;;;;;;;17.39;10.62;;;;;;;;;;373536;107;1962099;-74
2021/05/27 01:44:15;;;;;;;14.66;10.46;;;;;;;;;;371417;109;1961927;-73
2021/05/27 01:45:21;;;;;;;19.04;11.23;;;;;;;;;;367459;109;1962063;-74
2021/05/27 01:46:27;;;;;;;15.21;10.95;;;;;;;;;;368469;109;1961974;-74
2021/05/27 01:47:32;;;;;;;15.26;10.24;;;;;;;;;;367896;109;1962976;-73
2021/05/27 01:48:38;;;;;;;15.44;11.07;;;;;;;;;;331449;109;2672975;-74
2021/05/27 01:49:44;;;;;;;17.58;11.48;;;;;;;;;;370610;109;1961922;-74
2021/05/27 01:50:52;;;;;;;15.07;11.08;;;;;;;;;;367874;109;1961950;-74
2021/05/27 01:52:04;;;;;;;15.21;10.60;;;;;;;;;;369017;109;1961971;-73
2021/05/27 01:53:10;;;;;;;15.16;10.16;;;;;;;;;;368863;109;1961963;-74
2021/05/27 01:54:16;;;;;;;15.56;10.72;;;;;;;;;;368720;109;1962910;-73
2021/05/27 01:55:21;;;;;;;14.83;10.19;;;;;;;;;;368595;110;1962980;-73
2021/05/27 01:56:29;;;;;;;17.81;11.12;;;;;;;;;;361376;107;2927061;-74
2021/05/27 01:57:35;;;;;;;14.32;10.44;;;;;;;;;;371503;109;1961994;-72
2021/05/27 01:58:41;;;;;;;14.02;10.06;;;;;;;;;;367576;109;1960910;-72
2021/05/27 01:59:48;;;;;;;13.51;9.84;;;;;;;;;;363583;111;1961963;-71
2021/05/27 02:00:54;;;;;;;15.76;10.23;;;;;;;;;;343171;109;2354027;-73
2021/05/27 02:02:01;;;;;;;17.68;10.48;;;;;;;;;;370678;109;1961933;-74
2021/05/27 02:03:33;;;;;;;14.36;10.20;;;;;;;;;;415472;99;1985746;-73
2021/05/27 02:04:40;;;;;;;15.47;10.34;;;;;;;;;;382674;101;1962021;-74
2021/05/27 02:05:46;;;;;;;15.67;10.86;;;;;;;;;;390887;101;1961921;-75
2021/05/27 02:06:52;;;;;;;15.78;10.94;;;;;;;;;;397514;101;1960881;-75
2021/05/27 02:07:58;;;;;;;18.91;11.56;;;;;;;;;;390720;102;1960933;-73
2021/05/27 02:09:10;;;;;;;15.66;11.55;;;;;;;;;;373458;102;1961083;-73
2021/05/27 02:10:25;;;;;;;15.12;10.84;;;;;;;;;;352903;102;2566921;-75
2021/05/27 02:11:32;;;;;;;15.97;10.75;;;;;;;;;;388139;102;1961913;-74
2021/05/27 02:12:39;;;;;;;15.71;10.68;;;;;;;;;;388308;102;1963079;-73
2021/05/27 02:13:46;;;;;;;14.99;10.65;;;;;;;;;;390976;103;1960886;-74
2021/05/27 02:14:51;;;;;;;16.77;10.88;;;;;;;;;;389342;103;1961102;-75
2021/05/27 02:15:56;;;;;;;15.79;10.66;;;;;;;;;;390687;102;1961995;-74
2021/05/27 02:17:01;;;;;;;16.61;10.58;;;;;;;;;;388992;103;1963989;-75
2021/05/27 02:18:06;;;;;;;16.92;10.99;;;;;;;;;;383654;102;1962958;-75
2021/05/27 02:19:13;;;;;;;15.62;10.76;;;;;;;;;;392362;103;1962960;-74
2021/05/27 02:20:22;;;;;;;13.71;10.48;;;;;;;;;;393609;103;1964987;-75
2021/05/27 02:21:28;;;;;;;17.21;10.26;;;;;;;;;;390016;103;1961966;-75
2021/05/27 02:22:35;;;;;;;18.87;10.48;;;;;;;;;;388923;103;1961932;-75
2021/05/27 02:23:42;;;;;;;15.68;9.96;;;;;;;;;;386070;103;1961999;-75
2021/05/27 02:24:48;;;;;;;16.01;11.95;;;;;;;;;;388222;103;1962017;-75
2021/05/27 02:26:00;;;;;;;16.47;10.28;;;;;;;;;;405415;101;1986884;-75
2021/05/27 02:27:07;;;;;;;15.94;10.67;;;;;;;;;;375697;105;1962890;-75
2021/05/27 02:28:12;;;;;;;15.51;10.68;;;;;;;;;;382568;105;1962023;-75
2021/05/27 02:29:20;;;;;;;13.87;10.53;;;;;;;;;;386093;104;1962928;-75
2021/05/27 02:30:27;;;;;;;14.49;10.84;;;;;;;;;;372424;104;1961998;-74
2021/05/27 02:31:35;;;;;;;18.50;11.47;;;;;;;;;;387182;105;1961925;-74
2021/05/27 02:32:40;;;;;;;15.31;10.38;;;;;;;;;;383393;105;1962003;-75
2021/05/27 02:33:47;;;;;;;14.43;10.78;;;;;;;;;;319435;105;2195897;-75
2021/05/27 02:35:04;;;;;;;17.94;11.57;;;;;;;;;;385042;105;1961957;-75
2021/05/27 02:36:11;;;;;;;17.83;11.23;;;;;;;;;;382135;104;1961945;-76
2021/05/27 02:37:17;;;;;;;13.85;10.21;;;;;;;;;;318486;104;2200309;-75
2021/05/27 02:38:24;;;;;;;14.06;10.18;;;;;;;;;;385113;104;1961971;-73
2021/05/27 02:39:31;;;;;;;15.01;11.06;;;;;;;;;;384452;103;1961951;-75
2021/05/27 02:40:37;;;;;;;16.12;10.47;;;;;;;;;;341983;104;2703988;-75
2021/05/27 02:41:42;;;;;;;14.89;10.97;;;;;;;;;;353970;104;1961911;-74
2021/05/27 02:42:54;;;;;;;16.96;11.62;;;;;;;;;;394292;104;1988968;-74
2021/05/27 02:44:01;;;;;;;14.72;10.96;;;;;;;;;;378884;105;1963951;-74
2021/05/27 02:45:08;;;;;;;15.66;10.11;;;;;;;;;;347222;105;2428886;-75
2021/05/27 02:46:17;;;;;;;14.18;10.39;;;;;;;;;;369178;107;1960856;-75
2021/05/27 02:47:27;;;;;;;15.60;11.54;;;;;;;;;;366142;109;1961045;-75
2021/05/27 02:48:33;;;;;;;17.99;10.91;;;;;;;;;;297605;109;2277989;-75
2021/05/27 02:49:45;;;;;;;16.61;12.59;;;;;;;;;;390113;104;2074995;-73
2021/05/27 02:50:50;;;;;;;16.73;10.96;;;;;;;;;;375354;106;1970006;-73
2021/05/27 02:51:55;;;;;;;15.92;11.41;;;;;;;;;;379426;105;1963991;-72
2021/05/27 02:53:02;;;;;;;17.48;12.46;;;;;;;;;;371844;107;1962933;-74
2021/05/27 02:54:14;;;;;;;21.31;12.53;;;;;;;;;;361774;104;2070950;-73
2021/05/27 02:55:19;;;;;;;20.80;11.33;;;;;;;;;;377716;105;1965082;-73
2021/05/27 02:56:27;;;;;;;16.80;11.42;;;;;;;;;;377123;105;1961949;-72
2021/05/27 02:57:33;;;;;;;18.45;12.28;;;;;;;;;;308833;107;2195972;-73
2021/05/27 02:58:39;;;;;;;19.67;11.59;;;;;;;;;;370379;107;1962057;-73
2021/05/27 02:59:46;;;;;;;15.18;10.49;;;;;;;;;;368288;107;1962017;-73
2021/05/27 03:00:52;;;;;;;16.11;12.06;;;;;;;;;;368429;107;1961885;-73
2021/05/27 03:02:00;;;;;;;17.18;11.89;;;;;;;;;;371635;108;1961995;-73
2021/05/27 03:03:06;;;;;;;15.23;11.51;;;;;;;;;;372281;107;1961977;-72
2021/05/27 03:04:11;;;;;;;24.28;13.37;;;;;;;;;;370378;107;1962998;-72
2021/05/27 03:05:16;;;;;;;17.79;12.12;;;;;;;;;;371318;108;1960817;-73
2021/05/27 03:06:28;;;;;;;19.80;11.93;;;;;;;;;;393834;104;1985970;-73
2021/05/27 03:07:34;;;;;;;17.28;11.46;;;;;;;;;;314868;105;2163970;-72
2021/05/27 03:08:41;;;;;;;16.58;11.11;;;;;;;;;;373867;106;1961884;-72
2021/05/27 03:09:46;;;;;;;19.71;11.72;;;;;;;;;;373818;107;1961974;-73
2021/05/27 03:10:54;;;;;;;20.14;12.02;;;;;;;;;;372976;107;1962043;-72
2021/05/27 03:12:00;;;;;;;17.09;11.83;;;;;;;;;;356966;107;1961996;-72
2021/05/27 03:13:07;;;;;;;17.83;12.72;;;;;;;;;;373820;106;1962017;-72
2021/05/27 03:14:15;;;;;;;14.78;11.53;;;;;;;;;;329625;109;2655993;-74
2021/05/27 03:15:22;;;;;;;17.81;11.36;;;;;;;;;;376843;107;1963003;-73
2021/05/27 03:16:27;;;;;;;18.56;11.50;;;;;;;;;;367263;108;1961985;-74
2021/05/27 03:17:33;;;;;;;20.96;12.38;;;;;;;;;;369512;107;1962004;-74
2021/05/27 03:18:40;;;;;;;18.41;11.90;;;;;;;;;;333110;106;2003917;-73
2021/05/27 03:19:46;;;;;;;20.89;11.98;;;;;;;;;;354558;110;1963961;-72
2021/05/27 03:20:52;;;;;;;23.52;12.83;;;;;;;;;;369852;107;1960958;-74
2021/05/27 03:21:57;;;;;;;20.27;11.63;;;;;;;;;;369147;109;1961976;-73
2021/05/27 03:23:02;;;;;;;19.66;13.27;;;;;;;;;;369650;107;1965046;-73
2021/05/27 03:24:08;;;;;;;19.51;12.38;;;;;;;;;;376206;106;1962969;-73
2021/05/27 03:25:16;;;;;;;24.91;12.84;;;;;;;;;;366195;107;2877000;-73
2021/05/27 03:26:23;;;;;;;18.94;11.82;;;;;;;;;;368981;109;1962029;-74
2021/05/27 03:27:29;;;;;;;18.46;12.23;;;;;;;;;;368649;107;1960699;-73
2021/05/27 03:28:35;;;;;;;21.75;12.36;;;;;;;;;;375875;107;1960936;-74
2021/05/27 03:29:45;;;;;;;26.41;12.75;;;;;;;;;;373116;107;1961024;-73
2021/05/27 03:30:51;;;;;;;24.29;14.38;;;;;;;;;;301892;107;2274875;-73
2021/05/27 03:31:56;;;;;;;26.98;13.96;;;;;;;;;;316315;107;2145869;-73
2021/05/27 03:33:02;;;;;;;17.46;12.30;;;;;;;;;;356151;107;1961938;-73
2021/05/27 03:34:07;;;;;;;22.50;13.71;;;;;;;;;;371594;107;1962964;-71
2021/05/27 03:35:13;;;;;;;29.03;15.90;;;;;;;;;;360809;111;1961854;-73
2021/05/27 03:36:19;;;;;;;25.82;13.14;;;;;;;;;;370764;108;1961848;-73
2021/05/27 03:37:26;;;;;;;36.44;17.84;;;;;;;;;;370606;109;1964007;-73
2021/05/27 03:38:32;;;;;;;26.82;14.83;;;;;;;;;;324527;107;2817973;-74
2021/05/27 03:39:37;;;;;;;30.75;15.94;;;;;;;;;;366145;107;1961956;-73
2021/05/27 03:40:43;;;;;;;19.88;12.63;;;;;;;;;;370454;107;1962972;-73
2021/05/27 03:41:48;;;;;;;25.84;14.78;;;;;;;;;;366313;107;1961882;-73
2021/05/27 03:42:54;;;;;;;25.09;14.73;;;;;;;;;;367972;106;1962049;-73
2021/05/27 03:43:59;;;;;;;27.42;15.13;;;;;;;;;;376832;106;1962026;-73
2021/05/27 03:45:06;;;;;;;29.64;16.00;;;;;;;;;;362084;109;1961964;-73
2021/05/27 03:46:18;;;;;;;26.61;15.27;;;;;;;;;;394723;104;1986011;-74
2021/05/27 03:47:24;;;;;;;27.57;15.33;;;;;;;;;;373292;106;1961932;-73
2021/05/27 03:48:29;;;;;;;20.88;13.97;;;;;;;;;;370630;107;1961873;-74
2021/05/27 03:49:34;;;;;;;22.17;13.94;;;;;;;;;;371658;107;1961984;-75
2021/05/27 03:50:40;;;;;;;26.11;15.02;;;;;;;;;;376736;107;1961981;-73
2021/05/27 03:51:47;;;;;;;25.57;14.16;;;;;;;;;;374208;105;1961973;-73
2021/05/27 03:52:54;;;;;;;30.36;15.24;;;;;;;;;;339429;109;2459944;-73
2021/05/27 03:54:00;;;;;;;31.66;16.27;;;;;;;;;;367117;106;1963001;-74
2021/05/27 03:55:06;;;;;;;26.82;15.07;;;;;;;;;;376133;107;1961943;-73
2021/05/27 03:56:12;;;;;;;25.01;14.91;;;;;;;;;;375219;107;1961878;-74
2021/05/27 03:57:24;;;;;;;23.36;14.59;;;;;;;;;;378153;107;1961983;-74
2021/05/27 04:01:27;;;;;;;19.52;13.99;;;;;;;;;;372841;107;1960754;-75
2021/05/27 04:02:42;;;;;;;21.18;14.04;;;;;;;;;;381428;106;1960783;-75
2021/05/27 04:08:00;;;;;;;24.93;14.28;;;;;;;;;;379159;106;1960704;-73
2021/05/27 04:09:31;;;;;;;19.82;13.54;;;;;;;;;;404582;101;1985919;-75
2021/05/27 04:10:37;;;;;;;20.59;13.64;;;;;;;;;;381218;103;1961003;-73
2021/05/27 04:11:42;;;;;;;20.31;14.78;;;;;;;;;;384344;103;1965046;-74
2021/05/27 04:12:48;;;;;;;21.16;14.87;;;;;;;;;;380190;104;1962040;-75
2021/05/27 04:13:54;;;;;;;20.47;15.08;;;;;;;;;;379345;106;1962006;-74
2021/05/27 04:15:21;;;;;;;26.53;17.54;;;;;;;;;;375394;101;2071989;-74
2021/05/27 04:16:29;;;;;;;21.12;14.46;;;;;;;;;;381856;105;1969024;-75
2021/05/27 04:17:35;;;;;;;24.42;15.56;;;;;;;;;;384355;103;1961948;-75
2021/05/27 04:18:41;;;;;;;22.94;16.37;;;;;;;;;;332470;103;2091931;-75
2021/05/27 04:19:47;;;;;;;28.01;15.20;;;;;;;;;;386371;103;1962758;-74
2021/05/27 04:20:56;;;;;;;23.52;15.83;;;;;;;;;;335501;103;2830929;-75
2021/05/27 04:22:01;;;;;;;31.10;17.28;;;;;;;;;;356586;105;1962799;-75
2021/05/27 04:23:08;;;;;;;37.49;19.02;;;;;;;;;;340298;103;1961908;-75
2021/05/27 04:24:20;;;;;;;39.17;19.10;;;;;;;;;;392562;102;1984860;-73
2021/05/27 04:25:26;;;;;;;34.43;19.51;;;;;;;;;;368310;110;1962016;-74
2021/05/27 04:26:33;;;;;;;30.79;18.46;;;;;;;;;;376176;108;1962078;-73
2021/05/27 04:27:39;;;;;;;34.60;20.51;;;;;;;;;;374492;106;1961975;-75
2021/05/27 04:28:46;;;;;;;30.13;17.86;;;;;;;;;;378466;105;1961979;-74
2021/05/27 04:29:52;;;;;;;26.39;18.42;;;;;;;;;;346076;107;2505006;-74
2021/05/27 04:31:11;;;;;;;30.05;19.66;;;;;;;;;;389778;104;2071952;-74
2021/05/27 04:33:41;;;;;;;26.73;16.36;;;;;;;;;;375598;105;1961949;-73
2021/05/27 04:34:46;;;;;;;31.79;18.34;;;;;;;;;;373999;105;1961995;-74
2021/05/27 04:35:51;;;;;;;28.12;19.06;;;;;;;;;;375598;106;1961917;-74
2021/05/27 04:36:56;;;;;;;34.51;19.33;;;;;;;;;;378797;105;1961984;-74
2021/05/27 04:38:16;;;;;;;26.36;17.62;;;;;;;;;;374168;107;1960877;-74
2021/05/27 04:39:22;;;;;;;25.80;17.30;;;;;;;;;;379097;106;1962995;-74
2021/05/27 04:40:29;;;;;;;27.03;17.08;;;;;;;;;;369070;105;1961901;-74
2021/05/27 04:41:41;;;;;;;26.19;18.32;;;;;;;;;;397069;104;1985841;-75
2021/05/27 04:42:46;;;;;;;32.18;19.35;;;;;;;;;;377174;105;1960791;-73
2021/05/27 04:43:54;;;;;;;30.39;21.04;;;;;;;;;;377192;106;1961930;-75
2021/05/27 04:44:59;;;;;;;29.76;20.69;;;;;;;;;;356629;106;1961945;-75
2021/05/27 04:46:04;;;;;;;30.17;19.22;;;;;;;;;;353008;106;1962902;-74
2021/05/27 04:47:09;;;;;;;33.61;18.94;;;;;;;;;;350045;105;1963994;-74
2021/05/27 04:48:15;;;;;;;24.83;17.52;;;;;;;;;;347811;108;1961839;-74
2021/05/27 04:49:20;;;;;;;31.54;18.69;;;;;;;;;;377916;108;1960845;-75
2021/05/27 04:50:28;;;;;;;26.19;16.88;;;;;;;;;;371947;109;1960908;-74
2021/05/27 04:51:34;;;;;;;33.62;17.08;;;;;;;;;;370941;106;1961033;-74
2021/05/27 04:52:39;;;;;;;25.91;18.09;;;;;;;;;;379125;106;1960795;-75
2021/05/27 04:53:57;;;;;;;28.16;16.84;;;;;;;;;;368262;108;2946914;-75
2021/05/27 04:55:13;;;;;;;30.28;19.22;;;;;;;;;;380190;107;1962023;-75
2021/05/27 04:56:21;;;;;;;26.35;18.08;;;;;;;;;;330546;110;2558955;-74
2021/05/27 04:57:26;;;;;;;23.99;16.23;;;;;;;;;;366675;110;1962019;-74
2021/05/27 04:58:32;;;;;;;22.43;16.42;;;;;;;;;;358942;112;1962063;-74
2021/05/27 04:59:37;;;;;;;23.24;16.43;;;;;;;;;;357691;113;1960842;-73
2021/05/27 05:00:47;;;;;;;24.04;17.25;;;;;;;;;;329956;112;1961035;-74
2021/05/27 05:01:52;;;;;;;30.03;17.34;;;;;;;;;;357682;113;1960925;-74
2021/05/27 05:02:57;;;;;;;25.24;17.59;;;;;;;;;;348859;112;1963039;-74
2021/05/27 05:04:03;;;;;;;18.47;15.28;;;;;;;;;;356624;111;1962026;-74
2021/05/27 05:05:09;;;;;;;27.58;18.68;;;;;;;;;;357524;113;1960902;-74
2021/05/27 05:06:15;;;;;;;30.07;17.34;;;;;;;;;;354379;113;1962089;-74
2021/05/27 05:07:38;;;;;;;33.63;19.52;;;;;;;;;;392746;106;2036987;-74
2021/05/27 05:08:44;;;;;;;27.38;19.39;;;;;;;;;;377595;106;1960728;-74
2021/05/27 05:09:56;;;;;;;23.68;18.25;;;;;;;;;;389008;106;1985960;-75
2021/05/27 05:11:03;;;;;;;23.68;17.52;;;;;;;;;;317801;110;2878936;-75
2021/05/27 05:12:27;;;;;;;21.86;15.87;;;;;;;;;;366026;109;1960833;-75
2021/05/27 05:13:33;;;;;;;19.71;15.13;;;;;;;;;;318365;110;2833006;-76
2021/05/27 05:14:38;;;;;;;21.61;14.71;;;;;;;;;;297141;113;2226999;-75
2021/05/27 05:15:43;;;;;;;19.40;14.55;;;;;;;;;;318214;109;2083968;-75
2021/05/27 05:16:50;;;;;;;20.52;14.98;;;;;;;;;;362924;109;1961938;-74
2021/05/27 05:17:57;;;;;;;24.81;16.97;;;;;;;;;;343493;116;1961972;-74
2021/05/27 05:19:03;;;;;;;23.88;16.32;;;;;;;;;;348029;114;1961023;-74
2021/05/27 05:20:08;;;;;;;22.13;14.82;;;;;;;;;;341585;114;2933688;-74
2021/05/27 05:21:14;;;;;;;22.06;16.22;;;;;;;;;;307152;114;2739857;-74
2021/05/27 05:22:19;;;;;;;25.38;16.31;;;;;;;;;;283230;114;2294388;-74
2021/05/27 05:23:25;;;;;;;27.21;20.54;;;;;;;;;;306524;114;2063039;-74
2021/05/27 05:24:30;;;;;;;40.08;23.62;;;;;;;;;;290523;114;2233881;-74
2021/05/27 05:25:36;;;;;;;27.03;18.21;;;;;;;;;;295077;114;2184049;-74
2021/05/27 05:26:42;;;;;;;22.96;17.11;;;;;;;;;;348378;114;1960906;-74
2021/05/27 05:27:47;;;;;;;24.79;16.97;;;;;;;;;;350048;114;1962878;-74
2021/05/27 05:28:52;;;;;;;23.21;15.64;;;;;;;;;;348524;114;1962022;-74
2021/05/27 05:29:57;;;;;;;24.31;16.07;;;;;;;;;;348608;114;1962957;-74
2021/05/27 05:31:03;;;;;;;23.36;16.67;;;;;;;;;;348963;114;1961000;-74
2021/05/27 05:32:08;;;;;;;27.49;16.81;;;;;;;;;;348108;114;1960829;-74
2021/05/27 05:33:19;;;;;;;25.08;15.81;;;;;;;;;;394062;104;1984792;-75
2021/05/27 05:34:25;;;;;;;21.91;14.46;;;;;;;;;;378067;106;1960785;-74
2021/05/27 05:35:32;;;;;;;21.77;13.28;;;;;;;;;;330257;102;2395924;-75
2021/05/27 05:36:37;;;;;;;17.02;11.53;;;;;;;;;;345193;106;1963784;-75
2021/05/27 05:37:43;;;;;;;16.57;12.30;;;;;;;;;;313630;109;2155959;-75
2021/05/27 05:38:48;;;;;;;27.08;17.00;;;;;;;;;;331497;107;2007927;-75
2021/05/27 05:39:53;;;;;;;25.18;14.91;;;;;;;;;;323692;107;2112000;-74
2021/05/27 05:41:28;;;;;;;17.76;11.47;;;;;;;;;;408948;99;1985884;-75
2021/05/27 05:42:33;;;;;;;14.70;10.24;;;;;;;;;;332526;105;2730917;-75
2021/05/27 05:43:47;;;;;;;15.43;10.86;;;;;;;;;;310134;109;2240989;-75
2021/05/27 05:44:53;;;;;;;20.91;10.67;;;;;;;;;;363715;110;1960758;-75
2021/05/27 05:45:58;;;;;;;14.22;10.59;;;;;;;;;;365467;109;1960933;-75
2021/05/27 05:47:05;;;;;;;15.11;11.33;;;;;;;;;;320695;111;2752874;-75
2021/05/27 05:48:16;;;;;;;14.66;10.16;;;;;;;;;;395700;104;1961870;-75
2021/05/27 05:49:21;;;;;;;13.95;10.41;;;;;;;;;;373422;107;1961964;-75
2021/05/27 05:52:00;;;;;;;21.05;10.64;;;;;;;;;;350536;103;2784973;-75
2021/05/27 05:53:07;;;;;;;13.83;10.06;;;;;;;;;;340901;110;1964016;-75
2021/05/27 05:54:38;;;;;;;17.14;11.55;;;;;;;;;;400578;101;1985886;-75
2021/05/27 05:55:43;;;;;;;15.05;11.44;;;;;;;;;;378377;104;1961924;-75
2021/05/27 05:57:07;;;;;;;17.03;11.96;;;;;;;;;;350757;105;1961944;-75
2021/05/27 05:58:12;;;;;;;14.71;10.32;;;;;;;;;;342497;107;2006050;-76
2021/05/27 05:59:17;;;;;;;12.95;10.26;;;;;;;;;;352128;105;1961989;-75
2021/05/27 06:00:25;;;;;;;30.51;16.52;;;;;;;;;;372823;107;1963305;-75
2021/05/27 06:01:32;;;;;;;19.37;12.66;;;;;;;;;;377437;107;1963036;-75
2021/05/27 06:02:38;;;;;;;22.25;13.68;;;;;;;;;;305784;106;2342017;-75
2021/05/27 06:03:43;;;;;;;18.47;12.19;;;;;;;;;;359929;107;1962051;-74
2021/05/27 06:04:50;;;;;;;15.57;11.53;;;;;;;;;;377614;107;1962040;-75
2021/05/27 06:06:13;;;;;;;15.34;11.12;;;;;;;;;;357025;113;1962966;-75
2021/05/27 06:07:25;;;;;;;17.51;12.08;;;;;;;;;;382630;104;2070817;-75
2021/05/27 06:08:30;;;;;;;17.28;11.94;;;;;;;;;;350363;104;1968615;-74
2021/05/27 06:09:35;;;;;;;19.20;12.91;;;;;;;;;;335868;110;1981932;-74
2021/05/27 06:10:40;;;;;;;14.51;9.31;;;;;;;;;;365203;110;1961993;-74
2021/05/27 06:11:45;;;;;;;13.89;9.14;;;;;;;;;;360218;106;1960971;-74
2021/05/27 06:12:51;;;;;;;13.06;9.10;;;;;;;;;;341907;106;1963955;-73
2021/05/27 06:13:56;;;;;;;12.51;8.05;;;;;;;;;;371171;108;1960864;-74
2021/05/27 06:15:01;;;;;;;23.03;10.46;;;;;;;;;;361107;108;1963202;-75
2021/05/27 06:16:07;;;;;;;13.32;7.88;;;;;;;;;;362793;108;1961981;-74
2021/05/27 06:17:12;;;;;;;15.71;8.26;;;;;;;;;;346162;106;1964071;-74
2021/05/27 06:18:24;;;;;;;19.01;10.92;;;;;;;;;;398320;104;1986937;-75
2021/05/27 06:19:50;;;;;;;14.91;11.67;;;;;;;;;;375196;107;1961998;-75
2021/05/27 06:20:57;;;;;;;15.22;10.19;;;;;;;;;;342425;107;2584959;-76
2021/05/27 06:22:06;;;;;;;16.33;10.43;;;;;;;;;;373695;107;1961851;-75
2021/05/27 06:23:19;;;;;;;18.85;11.01;;;;;;;;;;370539;107;1964038;-75
2021/05/27 06:24:24;;;;;;;17.21;11.26;;;;;;;;;;369592;104;1960613;-74
2021/05/27 06:25:31;;;;;;;14.15;9.85;;;;;;;;;;362469;106;1961960;-74
2021/05/27 06:26:43;;;;;;;13.83;9.70;;;;;;;;;;387699;103;1984781;-73
2021/05/27 06:27:48;;;;;;;16.21;10.71;;;;;;;;;;363082;111;1970871;-75
2021/05/27 06:28:54;;;;;;;18.14;9.92;;;;;;;;;;304855;113;2860831;-74
2021/05/27 06:30:00;;;;;;;13.26;8.71;;;;;;;;;;309694;113;2109062;-74
2021/05/27 06:31:05;;;;;;;15.07;7.79;;;;;;;;;;294123;113;2249037;-75
2021/05/27 06:32:10;;;;;;;13.00;7.97;;;;;;;;;;314663;113;2046875;-74